sensor_id;sensor_type;location;lat;lon;timestamp;noise_LAeq;noise_LA_min;noise_LA_max;noise_LA01;noise_LA95
61095;Laerm;20450;49.074;9.158;2023-02-28T00:00:01;38.37;35.04;41.06;;
61095;Laerm;20450;49.074;9.158;2023-02-28T00:02:30;38.50;34.69;42.29;;
61095;Laerm;20450;49.074;9.158;2023-02-28T00:04:57;38.45;35.04;41.68;;
61095;Laerm;20450;49.074;9.158;2023-02-28T00:07:25;38.28;35.04;41.14;;
61095;Laerm;20450;49.074;9.158;2023-02-28T00:09:52;38.21;35.04;41.53;;
61095;Laerm;20450;49.074;9.158;2023-02-28T00:12:19;38.23;34.69;40.63;;
61095;Laerm;20450;49.074;9.158;2023-02-28T00:14:46;38.81;34.69;43.86;;
61095;Laerm;20450;49.074;9.158;2023-02-28T00:17:12;38.43;34.69;41.53;;
61095;Laerm;20450;49.074;9.158;2023-02-28T00:19:39;38.41;34.69;41.22;;
61095;Laerm;20450;49.074;9.158;2023-02-28T00:22:06;38.44;35.04;41.68;;
61095;Laerm;20450;49.074;9.158;2023-02-28T00:24:35;40.19;34.69;49.85;;
61095;Laerm;20450;49.074;9.158;2023-02-28T00:27:02;39.24;34.69;43.99;;
61095;Laerm;20450;49.074;9.158;2023-02-28T00:29:29;39.40;35.36;45.07;;
61095;Laerm;20450;49.074;9.158;2023-02-28T00:31:55;38.63;35.04;43.34;;
61095;Laerm;20450;49.074;9.158;2023-02-28T00:34:22;38.29;33.90;41.68;;
61095;Laerm;20450;49.074;9.158;2023-02-28T00:36:49;38.78;34.69;43.09;;
61095;Laerm;20450;49.074;9.158;2023-02-28T00:39:17;38.30;34.31;41.38;;
61095;Laerm;20450;49.074;9.158;2023-02-28T00:41:45;38.67;35.04;42.58;;
61095;Laerm;20450;49.074;9.158;2023-02-28T00:44:13;38.67;35.04;43.77;;
61095;Laerm;20450;49.074;9.158;2023-02-28T00:46:40;39.45;35.66;44.07;;
61095;Laerm;20450;49.074;9.158;2023-02-28T00:49:07;38.29;35.04;41.38;;
61095;Laerm;20450;49.074;9.158;2023-02-28T00:51:35;38.46;35.04;42.59;;
61095;Laerm;20450;49.074;9.158;2023-02-28T00:54:02;38.53;34.69;42.82;;
61095;Laerm;20450;49.074;9.158;2023-02-28T00:56:28;38.51;34.31;42.76;;
61095;Laerm;20450;49.074;9.158;2023-02-28T00:58:57;38.26;34.69;42.41;;
61095;Laerm;20450;49.074;9.158;2023-02-28T01:01:24;38.23;34.69;41.53;;
61095;Laerm;20450;49.074;9.158;2023-02-28T01:03:51;39.33;34.69;45.69;;
61095;Laerm;20450;49.074;9.158;2023-02-28T01:06:18;38.80;34.31;43.34;;
61095;Laerm;20450;49.074;9.158;2023-02-28T01:08:45;39.81;35.04;53.26;;
61095;Laerm;20450;49.074;9.158;2023-02-28T01:11:17;39.16;34.69;44.58;;
61095;Laerm;20450;49.074;9.158;2023-02-28T01:13:46;39.04;34.31;49.35;;
61095;Laerm;20450;49.074;9.158;2023-02-28T01:16:16;39.40;35.04;43.54;;
61095;Laerm;20450;49.074;9.158;2023-02-28T01:18:44;38.88;34.69;43.44;;
61095;Laerm;20450;49.074;9.158;2023-02-28T01:21:14;39.40;34.31;49.33;;
61095;Laerm;20450;49.074;9.158;2023-02-28T01:23:42;38.41;34.31;42.13;;
61095;Laerm;20450;49.074;9.158;2023-02-28T01:26:12;39.70;35.36;46.10;;
61095;Laerm;20450;49.074;9.158;2023-02-28T01:28:40;38.23;33.90;43.04;;
61095;Laerm;20450;49.074;9.158;2023-02-28T01:31:09;38.51;34.69;41.96;;
61095;Laerm;20450;49.074;9.158;2023-02-28T01:33:40;38.48;34.69;42.47;;
61095;Laerm;20450;49.074;9.158;2023-02-28T01:36:12;38.58;32.35;43.34;;
61095;Laerm;20450;49.074;9.158;2023-02-28T01:38:40;38.69;34.69;42.29;;
61095;Laerm;20450;49.074;9.158;2023-02-28T01:41:08;38.90;34.69;43.39;;
61095;Laerm;20450;49.074;9.158;2023-02-28T01:43:58;39.40;34.31;48.76;;
61095;Laerm;20450;49.074;9.158;2023-02-28T01:46:25;38.80;33.44;43.34;;
61095;Laerm;20450;49.074;9.158;2023-02-28T01:49:03;39.60;34.69;47.04;;
61095;Laerm;20450;49.074;9.158;2023-02-28T01:51:38;39.98;34.69;52.81;;
61095;Laerm;20450;49.074;9.158;2023-02-28T01:54:12;38.59;35.04;43.44;;
61095;Laerm;20450;49.074;9.158;2023-02-28T01:56:47;39.43;33.90;47.28;;
61095;Laerm;20450;49.074;9.158;2023-02-28T01:59:23;38.50;31.68;43.68;;
61095;Laerm;20450;49.074;9.158;2023-02-28T02:01:52;40.26;35.04;47.28;;
61095;Laerm;20450;49.074;9.158;2023-02-28T02:04:23;41.11;35.36;53.42;;
61095;Laerm;20450;49.074;9.158;2023-02-28T02:06:52;39.09;33.90;47.79;;
61095;Laerm;20450;49.074;9.158;2023-02-28T02:09:19;40.08;35.36;50.69;;
61095;Laerm;20450;49.074;9.158;2023-02-28T02:11:47;40.92;35.66;56.06;;
61095;Laerm;20450;49.074;9.158;2023-02-28T02:14:43;38.34;33.90;42.35;;
61095;Laerm;20450;49.074;9.158;2023-02-28T02:17:25;39.09;35.04;43.89;;
61095;Laerm;20450;49.074;9.158;2023-02-28T02:20:38;39.16;35.04;44.62;;
61095;Laerm;20450;49.074;9.158;2023-02-28T02:23:46;38.50;34.31;43.39;;
61095;Laerm;20450;49.074;9.158;2023-02-28T02:26:55;39.27;34.31;49.02;;
61095;Laerm;20450;49.074;9.158;2023-02-28T02:33:26;38.88;33.44;43.68;;
61095;Laerm;20450;49.074;9.158;2023-02-28T02:36:04;38.50;32.35;42.93;;
61095;Laerm;20450;49.074;9.158;2023-02-28T02:38:41;40.20;35.04;45.89;;
61095;Laerm;20450;49.074;9.158;2023-02-28T02:41:21;39.39;34.69;46.18;;
61095;Laerm;20450;49.074;9.158;2023-02-28T02:43:56;39.54;33.44;44.83;;
61095;Laerm;20450;49.074;9.158;2023-02-28T02:46:31;39.23;34.31;46.33;;
61095;Laerm;20450;49.074;9.158;2023-02-28T02:49:03;38.15;33.90;40.98;;
61095;Laerm;20450;49.074;9.158;2023-02-28T02:51:36;38.96;35.04;42.76;;
61095;Laerm;20450;49.074;9.158;2023-02-28T02:54:12;38.97;35.01;43.44;;
61095;Laerm;20450;49.074;9.158;2023-02-28T02:56:43;38.32;33.90;41.75;;
61095;Laerm;20450;49.074;9.158;2023-02-28T02:59:18;38.42;34.31;41.96;;
61095;Laerm;20450;49.074;9.158;2023-02-28T03:01:45;39.20;34.31;42.98;;
61095;Laerm;20450;49.074;9.158;2023-02-28T03:04:18;38.62;34.69;43.58;;
61095;Laerm;20450;49.074;9.158;2023-02-28T03:06:49;39.06;34.69;44.87;;
61095;Laerm;20450;49.074;9.158;2023-02-28T03:09:17;39.41;35.36;45.33;;
61095;Laerm;20450;49.074;9.158;2023-02-28T03:11:45;39.25;35.36;45.97;;
61095;Laerm;20450;49.074;9.158;2023-02-28T03:14:33;39.68;35.94;44.43;;
61095;Laerm;20450;49.074;9.158;2023-02-28T03:17:32;39.90;33.90;50.76;;
61095;Laerm;20450;49.074;9.158;2023-02-28T03:20:17;39.05;35.04;47.40;;
61095;Laerm;20450;49.074;9.158;2023-02-28T03:23:03;38.97;34.69;43.29;;
61095;Laerm;20450;49.074;9.158;2023-02-28T03:25:45;38.54;34.69;42.22;;
61095;Laerm;20450;49.074;9.158;2023-02-28T03:28:31;39.81;35.04;47.14;;
61095;Laerm;20450;49.074;9.158;2023-02-28T03:31:07;39.33;34.31;43.54;;
61095;Laerm;20450;49.074;9.158;2023-02-28T03:33:42;39.41;34.69;44.80;;
61095;Laerm;20450;49.074;9.158;2023-02-28T03:36:16;39.20;35.04;44.08;;
61095;Laerm;20450;49.074;9.158;2023-02-28T03:38:53;39.34;35.04;43.29;;
61095;Laerm;20450;49.074;9.158;2023-02-28T03:41:24;39.75;35.04;51.57;;
61095;Laerm;20450;49.074;9.158;2023-02-28T03:43:56;39.90;35.94;43.39;;
61095;Laerm;20450;49.074;9.158;2023-02-28T03:46:29;40.76;36.69;44.59;;
61095;Laerm;20450;49.074;9.158;2023-02-28T03:49:06;39.85;36.20;44.15;;
61095;Laerm;20450;49.074;9.158;2023-02-28T03:51:42;39.84;34.69;45.04;;
61095;Laerm;20450;49.074;9.158;2023-02-28T03:54:16;39.37;35.86;42.93;;
61095;Laerm;20450;49.074;9.158;2023-02-28T03:56:51;39.96;35.04;51.26;;
61095;Laerm;20450;49.074;9.158;2023-02-28T03:59:27;39.69;35.94;42.88;;
61095;Laerm;20450;49.074;9.158;2023-02-28T04:01:57;40.07;35.94;45.89;;
61095;Laerm;20450;49.074;9.158;2023-02-28T04:04:27;39.62;35.94;43.34;;
61095;Laerm;20450;49.074;9.158;2023-02-28T04:07:03;40.24;36.45;47.48;;
61095;Laerm;20450;49.074;9.158;2023-02-28T04:09:32;39.96;35.94;43.29;;
61095;Laerm;20450;49.074;9.158;2023-02-28T04:11:59;40.31;36.20;44.62;;
61095;Laerm;20450;49.074;9.158;2023-02-28T04:14:26;40.30;36.69;47.74;;
61095;Laerm;20450;49.074;9.158;2023-02-28T04:16:53;40.59;36.69;47.24;;
61095;Laerm;20450;49.074;9.158;2023-02-28T04:19:20;40.92;36.91;50.85;;
61095;Laerm;20450;49.074;9.158;2023-02-28T04:21:49;40.75;37.12;47.83;;
61095;Laerm;20450;49.074;9.158;2023-02-28T04:24:20;40.54;36.45;47.36;;
61095;Laerm;20450;49.074;9.158;2023-02-28T04:26:51;41.82;36.69;48.52;;
61095;Laerm;20450;49.074;9.158;2023-02-28T04:29:21;40.11;36.20;48.55;;
61095;Laerm;20450;49.074;9.158;2023-02-28T04:31:49;40.89;37.12;48.29;;
61095;Laerm;20450;49.074;9.158;2023-02-28T04:34:16;41.48;36.91;47.34;;
61095;Laerm;20450;49.074;9.158;2023-02-28T04:36:43;40.44;37.12;44.86;;
61095;Laerm;20450;49.074;9.158;2023-02-28T04:39:10;40.84;37.70;49.55;;
61095;Laerm;20450;49.074;9.158;2023-02-28T04:41:37;41.35;37.12;51.76;;
61095;Laerm;20450;49.074;9.158;2023-02-28T04:44:05;40.74;36.91;44.65;;
61095;Laerm;20450;49.074;9.158;2023-02-28T04:46:32;41.34;37.32;53.22;;
61095;Laerm;20450;49.074;9.158;2023-02-28T04:48:59;41.07;36.69;44.80;;
61095;Laerm;20450;49.074;9.158;2023-02-28T04:51:26;40.42;37.32;48.43;;
61095;Laerm;20450;49.074;9.158;2023-02-28T04:53:54;41.01;36.69;45.97;;
61095;Laerm;20450;49.074;9.158;2023-02-28T04:56:22;40.60;36.77;44.80;;
61095;Laerm;20450;49.074;9.158;2023-02-28T04:58:50;40.85;37.32;47.32;;
61095;Laerm;20450;49.074;9.158;2023-02-28T05:01:25;41.05;36.45;47.58;;
61095;Laerm;20450;49.074;9.158;2023-02-28T05:03:54;40.82;37.70;45.27;;
61095;Laerm;20450;49.074;9.158;2023-02-28T05:06:23;41.26;37.52;44.56;;
61095;Laerm;20450;49.074;9.158;2023-02-28T05:08:51;42.73;38.52;51.65;;
61095;Laerm;20450;49.074;9.158;2023-02-28T05:11:21;40.75;37.12;49.63;;
61095;Laerm;20450;49.074;9.158;2023-02-28T05:13:51;41.09;38.05;45.77;;
61095;Laerm;20450;49.074;9.158;2023-02-28T05:16:20;41.15;37.70;47.78;;
61095;Laerm;20450;49.074;9.158;2023-02-28T05:18:47;41.67;38.21;48.05;;
61095;Laerm;20450;49.074;9.158;2023-02-28T05:21:27;41.71;37.52;55.85;;
61095;Laerm;20450;49.074;9.158;2023-02-28T05:23:57;41.64;37.70;53.70;;
61095;Laerm;20450;49.074;9.158;2023-02-28T05:26:25;41.86;38.21;52.11;;
61095;Laerm;20450;49.074;9.158;2023-02-28T05:28:52;41.56;38.21;49.93;;
61095;Laerm;20450;49.074;9.158;2023-02-28T05:31:21;41.74;37.52;48.10;;
61095;Laerm;20450;49.074;9.158;2023-02-28T05:33:48;41.66;38.05;48.60;;
61095;Laerm;20450;49.074;9.158;2023-02-28T05:36:15;41.83;38.52;47.42;;
61095;Laerm;20450;49.074;9.158;2023-02-28T05:38:41;41.62;38.21;54.08;;
61095;Laerm;20450;49.074;9.158;2023-02-28T05:41:10;42.02;38.95;45.66;;
61095;Laerm;20450;49.074;9.158;2023-02-28T05:43:37;42.39;39.08;48.98;;
61095;Laerm;20450;49.074;9.158;2023-02-28T05:46:05;41.51;38.21;46.62;;
61095;Laerm;20450;49.074;9.158;2023-02-28T05:48:36;41.76;38.21;47.76;;
61095;Laerm;20450;49.074;9.158;2023-02-28T05:51:04;42.24;39.34;45.89;;
61095;Laerm;20450;49.074;9.158;2023-02-28T05:53:32;41.73;38.37;52.15;;
61095;Laerm;20450;49.074;9.158;2023-02-28T05:55:59;42.06;38.95;48.66;;
61095;Laerm;20450;49.074;9.158;2023-02-28T05:58:27;42.36;38.21;62.03;;
61095;Laerm;20450;49.074;9.158;2023-02-28T06:00:54;41.41;38.21;48.15;;
61095;Laerm;20450;49.074;9.158;2023-02-28T06:03:21;42.46;38.95;46.50;;
61095;Laerm;20450;49.074;9.158;2023-02-28T06:05:49;42.10;38.81;49.49;;
61095;Laerm;20450;49.074;9.158;2023-02-28T06:08:16;41.96;39.08;52.37;;
61095;Laerm;20450;49.074;9.158;2023-02-28T06:10:43;42.03;39.21;49.12;;
61095;Laerm;20450;49.074;9.158;2023-02-28T06:13:10;41.86;38.21;54.49;;
61095;Laerm;20450;49.074;9.158;2023-02-28T06:15:37;42.86;38.95;57.32;;
61095;Laerm;20450;49.074;9.158;2023-02-28T06:18:04;42.67;37.32;54.28;;
61095;Laerm;20450;49.074;9.158;2023-02-28T06:20:31;42.11;38.95;47.63;;
61095;Laerm;20450;49.074;9.158;2023-02-28T06:23:00;42.84;38.37;53.24;;
61095;Laerm;20450;49.074;9.158;2023-02-28T06:25:28;44.26;39.58;55.53;;
61095;Laerm;20450;49.074;9.158;2023-02-28T06:27:55;42.92;39.81;54.27;;
61095;Laerm;20450;49.074;9.158;2023-02-28T06:30:22;44.03;38.95;58.30;;
61095;Laerm;20450;49.074;9.158;2023-02-28T06:32:49;42.19;39.08;54.31;;
61095;Laerm;20450;49.074;9.158;2023-02-28T06:35:16;43.00;38.81;58.49;;
61095;Laerm;20450;49.074;9.158;2023-02-28T06:37:43;43.80;40.43;55.50;;
61095;Laerm;20450;49.074;9.158;2023-02-28T06:40:12;43.48;39.46;58.05;;
61095;Laerm;20450;49.074;9.158;2023-02-28T06:42:39;43.60;39.46;62.41;;
61095;Laerm;20450;49.074;9.158;2023-02-28T06:45:08;42.86;38.81;62.14;;
61095;Laerm;20450;49.074;9.158;2023-02-28T06:47:35;43.40;38.05;55.63;;
61095;Laerm;20450;49.074;9.158;2023-02-28T06:50:04;42.55;39.46;56.59;;
61095;Laerm;20450;49.074;9.158;2023-02-28T06:52:32;42.67;39.34;56.52;;
61095;Laerm;20450;49.074;9.158;2023-02-28T06:54:59;42.11;39.46;54.12;;
61095;Laerm;20450;49.074;9.158;2023-02-28T06:57:30;42.31;39.08;51.14;;
61095;Laerm;20450;49.074;9.158;2023-02-28T06:59:58;42.69;39.70;49.19;;
61095;Laerm;20450;49.074;9.158;2023-02-28T07:02:25;42.20;39.34;49.75;;
61095;Laerm;20450;49.074;9.158;2023-02-28T07:04:53;41.77;38.99;50.60;;
61095;Laerm;20450;49.074;9.158;2023-02-28T07:07:20;42.02;38.67;53.10;;
61095;Laerm;20450;49.074;9.158;2023-02-28T07:09:47;42.18;38.95;47.65;;
61095;Laerm;20450;49.074;9.158;2023-02-28T07:12:14;42.05;39.34;48.57;;
61095;Laerm;20450;49.074;9.158;2023-02-28T07:14:42;42.20;38.52;48.43;;
61095;Laerm;20450;49.074;9.158;2023-02-28T07:17:10;42.04;38.52;53.41;;
61095;Laerm;20450;49.074;9.158;2023-02-28T07:19:37;42.78;38.52;52.05;;
61095;Laerm;20450;49.074;9.158;2023-02-28T07:22:05;42.26;39.46;46.15;;
61095;Laerm;20450;49.074;9.158;2023-02-28T07:24:32;43.01;40.03;51.03;;
61095;Laerm;20450;49.074;9.158;2023-02-28T07:26:59;43.64;40.80;51.15;;
61095;Laerm;20450;49.074;9.158;2023-02-28T07:29:26;43.20;40.03;61.49;;
61095;Laerm;20450;49.074;9.158;2023-02-28T07:31:55;51.40;38.52;67.83;;
61095;Laerm;20450;49.074;9.158;2023-02-28T07:34:22;42.87;39.46;56.14;;
61095;Laerm;20450;49.074;9.158;2023-02-28T07:36:52;50.49;40.53;76.00;;
61095;Laerm;20450;49.074;9.158;2023-02-28T07:39:20;43.19;40.62;50.60;;
61095;Laerm;20450;49.074;9.158;2023-02-28T07:41:47;42.71;39.70;54.17;;
61095;Laerm;20450;49.074;9.158;2023-02-28T07:44:15;43.35;39.92;51.00;;
61095;Laerm;20450;49.074;9.158;2023-02-28T07:46:42;43.56;40.53;49.14;;
61095;Laerm;20450;49.074;9.158;2023-02-28T07:49:10;46.08;41.06;61.64;;
61095;Laerm;20450;49.074;9.158;2023-02-28T07:51:43;48.16;40.71;66.82;;
61095;Laerm;20450;49.074;9.158;2023-02-28T07:54:09;57.16;41.68;73.79;;
61095;Laerm;20450;49.074;9.158;2023-02-28T07:56:36;60.90;49.45;73.23;;
61095;Laerm;20450;49.074;9.158;2023-02-28T07:59:03;59.87;51.82;71.57;;
61095;Laerm;20450;49.074;9.158;2023-02-28T08:01:30;55.93;42.76;72.28;;
61095;Laerm;20450;49.074;9.158;2023-02-28T08:03:58;53.30;41.61;72.07;;
61095;Laerm;20450;49.074;9.158;2023-02-28T08:06:26;46.87;40.98;59.33;;
61095;Laerm;20450;49.074;9.158;2023-02-28T08:08:53;48.86;40.80;60.63;;
61095;Laerm;20450;49.074;9.158;2023-02-28T08:11:20;59.05;40.80;71.41;;
61095;Laerm;20450;49.074;9.158;2023-02-28T08:13:47;61.25;51.54;70.85;;
61095;Laerm;20450;49.074;9.158;2023-02-28T08:16:14;61.24;51.70;72.16;;
61095;Laerm;20450;49.074;9.158;2023-02-28T08:18:41;61.39;49.33;75.15;;
61095;Laerm;20450;49.074;9.158;2023-02-28T08:21:10;57.83;43.37;70.41;;
61095;Laerm;20450;49.074;9.158;2023-02-28T08:23:38;54.07;43.29;67.96;;
61095;Laerm;20450;49.074;9.158;2023-02-28T08:26:06;49.18;40.53;63.81;;
61095;Laerm;20450;49.074;9.158;2023-02-28T08:28:33;46.20;40.43;59.26;;
61095;Laerm;20450;49.074;9.158;2023-02-28T08:31:00;53.38;40.03;69.70;;
61095;Laerm;20450;49.074;9.158;2023-02-28T08:33:27;61.46;48.69;71.85;;
61095;Laerm;20450;49.074;9.158;2023-02-28T08:35:55;60.60;50.53;72.83;;
61095;Laerm;20450;49.074;9.158;2023-02-28T08:38:22;60.70;51.17;73.74;;
61095;Laerm;20450;49.074;9.158;2023-02-28T08:40:58;52.93;40.33;67.61;;
61095;Laerm;20450;49.074;9.158;2023-02-28T08:43:25;53.36;39.81;65.89;;
61095;Laerm;20450;49.074;9.158;2023-02-28T08:45:52;52.59;39.92;65.41;;
61095;Laerm;20450;49.074;9.158;2023-02-28T08:48:19;42.43;39.46;51.24;;
61095;Laerm;20450;49.074;9.158;2023-02-28T08:50:55;47.10;40.13;62.60;;
61095;Laerm;20450;49.074;9.158;2023-02-28T08:53:33;43.66;39.58;56.69;;
61095;Laerm;20450;49.074;9.158;2023-02-28T08:56:05;47.80;40.80;63.54;;
61095;Laerm;20450;49.074;9.158;2023-02-28T08:58:33;50.13;41.38;63.28;;
61095;Laerm;20450;49.074;9.158;2023-02-28T09:01:00;50.36;41.61;62.47;;
61095;Laerm;20450;49.074;9.158;2023-02-28T09:03:27;59.99;51.56;72.50;;
61095;Laerm;20450;49.074;9.158;2023-02-28T09:05:56;55.98;43.39;71.15;;
61095;Laerm;20450;49.074;9.158;2023-02-28T09:08:24;57.61;43.34;71.15;;
61095;Laerm;20450;49.074;9.158;2023-02-28T09:10:52;52.26;42.59;68.79;;
61095;Laerm;20450;49.074;9.158;2023-02-28T09:13:20;59.63;51.17;71.56;;
61095;Laerm;20450;49.074;9.158;2023-02-28T09:15:47;59.61;51.82;72.03;;
61095;Laerm;20450;49.074;9.158;2023-02-28T09:18:15;61.36;50.98;74.98;;
61095;Laerm;20450;49.074;9.158;2023-02-28T09:20:43;59.06;51.47;74.24;;
61095;Laerm;20450;49.074;9.158;2023-02-28T09:23:12;55.09;41.88;70.78;;
61095;Laerm;20450;49.074;9.158;2023-02-28T09:25:46;49.15;41.30;62.64;;
61095;Laerm;20450;49.074;9.158;2023-02-28T09:28:13;51.00;40.53;65.95;;
61095;Laerm;20450;49.074;9.158;2023-02-28T09:30:42;60.26;49.40;72.43;;
61095;Laerm;20450;49.074;9.158;2023-02-28T09:33:10;58.95;51.36;70.86;;
61095;Laerm;20450;49.074;9.158;2023-02-28T09:35:37;59.02;50.93;71.28;;
61095;Laerm;20450;49.074;9.158;2023-02-28T09:38:04;58.11;43.44;70.74;;
61095;Laerm;20450;49.074;9.158;2023-02-28T09:40:47;56.86;43.09;69.75;;
61095;Laerm;20450;49.074;9.158;2023-02-28T09:43:24;59.75;50.95;72.55;;
61095;Laerm;20450;49.074;9.158;2023-02-28T09:46:04;57.52;43.19;70.98;;
61095;Laerm;20450;49.074;9.158;2023-02-28T09:48:39;46.65;39.70;59.38;;
61095;Laerm;20450;49.074;9.158;2023-02-28T09:51:28;48.36;41.53;61.77;;
61095;Laerm;20450;49.074;9.158;2023-02-28T09:53:57;48.74;41.22;60.40;;
61095;Laerm;20450;49.074;9.158;2023-02-28T09:56:33;49.07;39.92;62.08;;
61095;Laerm;20450;49.074;9.158;2023-02-28T09:59:11;59.49;42.03;73.16;;
61095;Laerm;20450;49.074;9.158;2023-02-28T10:01:53;61.07;51.23;72.67;;
61095;Laerm;20450;49.074;9.158;2023-02-28T10:04:41;58.33;51.17;73.79;;
61095;Laerm;20450;49.074;9.158;2023-02-28T10:07:41;51.78;41.22;70.56;;
61095;Laerm;20450;49.074;9.158;2023-02-28T10:10:22;48.55;40.33;62.75;;
61095;Laerm;20450;49.074;9.158;2023-02-28T10:12:54;46.38;39.46;60.25;;
61095;Laerm;20450;49.074;9.158;2023-02-28T10:15:29;43.64;40.23;58.82;;
61095;Laerm;20450;49.074;9.158;2023-02-28T10:18:03;46.00;40.62;61.09;;
61095;Laerm;20450;49.074;9.158;2023-02-28T10:20:40;45.09;41.11;60.53;;
61095;Laerm;20450;49.074;9.158;2023-02-28T10:23:16;46.73;40.89;60.17;;
61095;Laerm;20450;49.074;9.158;2023-02-28T10:25:52;45.11;40.13;58.85;;
61095;Laerm;20450;49.074;9.158;2023-02-28T10:28:20;45.51;40.43;60.40;;
61095;Laerm;20450;49.074;9.158;2023-02-28T10:30:50;49.01;40.89;64.40;;
61095;Laerm;20450;49.074;9.158;2023-02-28T10:33:23;45.42;39.70;58.97;;
61095;Laerm;20450;49.074;9.158;2023-02-28T10:35:52;46.21;40.23;62.44;;
61095;Laerm;20450;49.074;9.158;2023-02-28T10:38:22;43.23;39.70;57.63;;
61095;Laerm;20450;49.074;9.158;2023-02-28T10:40:50;46.56;39.70;63.25;;
61095;Laerm;20450;49.074;9.158;2023-02-28T10:43:23;44.14;39.46;63.06;;
61095;Laerm;20450;49.074;9.158;2023-02-28T10:45:58;43.39;39.21;52.64;;
61095;Laerm;20450;49.074;9.158;2023-02-28T10:48:33;42.82;38.52;55.94;;
61095;Laerm;20450;49.074;9.158;2023-02-28T10:51:04;43.71;39.70;55.54;;
61095;Laerm;20450;49.074;9.158;2023-02-28T10:53:38;44.76;39.70;57.69;;
61095;Laerm;20450;49.074;9.158;2023-02-28T10:56:26;45.48;39.21;62.80;;
61095;Laerm;20450;49.074;9.158;2023-02-28T10:58:56;42.34;38.81;51.08;;
61095;Laerm;20450;49.074;9.158;2023-02-28T11:01:34;42.67;39.21;50.92;;
61095;Laerm;20450;49.074;9.158;2023-02-28T11:04:16;43.68;40.13;58.74;;
61095;Laerm;20450;49.074;9.158;2023-02-28T11:06:44;43.94;40.43;64.84;;
61095;Laerm;20450;49.074;9.158;2023-02-28T11:09:23;43.50;38.95;57.43;;
61095;Laerm;20450;49.074;9.158;2023-02-28T11:11:51;42.07;39.08;57.05;;
61095;Laerm;20450;49.074;9.158;2023-02-28T11:14:24;45.62;38.95;64.00;;
61095;Laerm;20450;49.074;9.158;2023-02-28T11:16:53;43.56;38.37;56.96;;
61095;Laerm;20450;49.074;9.158;2023-02-28T11:19:27;43.49;39.89;53.33;;
61095;Laerm;20450;49.074;9.158;2023-02-28T11:21:59;47.85;39.81;67.24;;
61095;Laerm;20450;49.074;9.158;2023-02-28T11:24:33;45.36;40.62;61.15;;
61095;Laerm;20450;49.074;9.158;2023-02-28T11:27:02;42.87;39.08;49.94;;
61095;Laerm;20450;49.074;9.158;2023-02-28T11:29:32;42.76;38.95;55.22;;
61095;Laerm;20450;49.074;9.158;2023-02-28T11:32:12;43.78;38.81;60.77;;
61095;Laerm;20450;49.074;9.158;2023-02-28T11:34:43;44.99;39.81;59.58;;
61095;Laerm;20450;49.074;9.158;2023-02-28T11:37:14;56.48;41.22;70.44;;
61095;Laerm;20450;49.074;9.158;2023-02-28T11:39:43;62.37;43.29;72.99;;
61095;Laerm;20450;49.074;9.158;2023-02-28T11:42:44;60.84;42.88;72.58;;
61095;Laerm;20450;49.074;9.158;2023-02-28T11:45:39;63.39;43.72;73.04;;
61095;Laerm;20450;49.074;9.158;2023-02-28T11:48:20;62.11;43.44;71.50;;
61095;Laerm;20450;49.074;9.158;2023-02-28T11:51:11;60.95;42.98;71.92;;
61095;Laerm;20450;49.074;9.158;2023-02-28T11:54:08;61.28;43.09;69.84;;
61095;Laerm;20450;49.074;9.158;2023-02-28T11:56:44;59.59;42.03;75.59;;
61095;Laerm;20450;49.074;9.158;2023-02-28T11:59:34;53.75;40.53;70.58;;
61095;Laerm;20450;49.074;9.158;2023-02-28T12:02:22;62.12;41.68;72.94;;
61095;Laerm;20450;49.074;9.158;2023-02-28T12:05:17;60.23;43.63;72.37;;
61095;Laerm;20450;49.074;9.158;2023-02-28T12:08:02;58.47;40.71;71.26;;
61095;Laerm;20450;49.074;9.158;2023-02-28T12:10:42;45.99;39.46;62.77;;
61095;Laerm;20450;49.074;9.158;2023-02-28T12:13:21;44.97;39.89;57.98;;
61095;Laerm;20450;49.074;9.158;2023-02-28T12:16:12;63.13;42.09;74.94;;
61095;Laerm;20450;49.074;9.158;2023-02-28T12:19:02;62.94;43.04;74.29;;
61095;Laerm;20450;49.074;9.158;2023-02-28T12:21:53;62.24;44.03;71.81;;
61095;Laerm;20450;49.074;9.158;2023-02-28T12:27:30;60.50;40.03;71.59;;
61095;Laerm;20450;49.074;9.158;2023-02-28T12:30:06;59.34;41.22;70.72;;
61095;Laerm;20450;49.074;9.158;2023-02-28T12:32:45;44.87;40.43;58.49;;
61095;Laerm;20450;49.074;9.158;2023-02-28T12:35:19;48.04;39.34;64.97;;
61095;Laerm;20450;49.074;9.158;2023-02-28T12:37:56;56.10;40.23;67.81;;
61095;Laerm;20450;49.074;9.158;2023-02-28T12:40:42;57.29;42.98;70.44;;
61095;Laerm;20450;49.074;9.158;2023-02-28T12:43:15;57.79;41.30;68.54;;
61095;Laerm;20450;49.074;9.158;2023-02-28T12:45:49;57.07;43.54;65.68;;
61095;Laerm;20450;49.074;9.158;2023-02-28T12:48:25;57.70;40.62;68.09;;
61095;Laerm;20450;49.074;9.158;2023-02-28T12:50:53;55.93;43.39;67.99;;
61095;Laerm;20450;49.074;9.158;2023-02-28T12:53:30;55.74;40.71;68.32;;
61095;Laerm;20450;49.074;9.158;2023-02-28T12:56:15;57.70;40.27;68.47;;
61095;Laerm;20450;49.074;9.158;2023-02-28T12:58:48;48.14;41.38;61.66;;
61095;Laerm;20450;49.074;9.158;2023-02-28T13:01:44;46.33;39.92;62.00;;
61095;Laerm;20450;49.074;9.158;2023-02-28T13:05:08;46.99;40.33;63.61;;
61095;Laerm;20450;49.074;9.158;2023-02-28T13:09:02;50.73;38.95;71.78;;
61095;Laerm;20450;49.074;9.158;2023-02-28T13:11:39;48.21;39.34;63.24;;
61095;Laerm;20450;49.074;9.158;2023-02-28T13:14:22;48.00;38.67;65.09;;
61095;Laerm;20450;49.074;9.158;2023-02-28T13:17:14;54.31;39.70;70.74;;
61095;Laerm;20450;49.074;9.158;2023-02-28T13:19:56;49.62;39.21;69.31;;
61095;Laerm;20450;49.074;9.158;2023-02-28T13:22:39;51.55;39.92;70.03;;
61095;Laerm;20450;49.074;9.158;2023-02-28T13:25:50;43.24;38.52;57.42;;
61095;Laerm;20450;49.074;9.158;2023-02-28T13:32:32;45.28;39.34;58.75;;
61095;Laerm;20450;49.074;9.158;2023-02-28T13:35:43;54.59;41.61;74.59;;
61095;Laerm;20450;49.074;9.158;2023-02-28T13:38:37;60.43;51.30;70.18;;
61095;Laerm;20450;49.074;9.158;2023-02-28T13:41:43;60.57;51.11;73.08;;
61095;Laerm;20450;49.074;9.158;2023-02-28T13:44:12;59.78;50.89;73.64;;
61095;Laerm;20450;49.074;9.158;2023-02-28T13:47:22;55.02;40.71;74.30;;
61095;Laerm;20450;49.074;9.158;2023-02-28T13:49:52;55.13;42.98;69.07;;
61095;Laerm;20450;49.074;9.158;2023-02-28T13:52:23;55.60;49.94;71.64;;
61095;Laerm;20450;49.074;9.158;2023-02-28T13:55:21;54.73;49.94;70.17;;
61095;Laerm;20450;49.074;9.158;2023-02-28T13:58:09;54.38;49.75;66.31;;
61095;Laerm;20450;49.074;9.158;2023-02-28T14:01:00;53.50;41.46;67.52;;
61095;Laerm;20450;49.074;9.158;2023-02-28T14:03:49;47.60;40.43;65.77;;
61095;Laerm;20450;49.074;9.158;2023-02-28T14:06:28;47.27;39.58;58.52;;
61095;Laerm;20450;49.074;9.158;2023-02-28T14:09:00;45.69;39.46;68.10;;
61095;Laerm;20450;49.074;9.158;2023-02-28T14:11:32;45.70;40.33;66.85;;
61095;Laerm;20450;49.074;9.158;2023-02-28T14:14:01;43.98;40.53;61.65;;
61095;Laerm;20450;49.074;9.158;2023-02-28T14:16:39;43.99;40.43;60.95;;
61095;Laerm;20450;49.074;9.158;2023-02-28T14:19:13;54.40;39.46;66.98;;
61095;Laerm;20450;49.074;9.158;2023-02-28T14:22:08;55.90;42.41;67.78;;
61095;Laerm;20450;49.074;9.158;2023-02-28T14:25:10;56.18;40.53;67.39;;
61095;Laerm;20450;49.074;9.158;2023-02-28T14:27:50;55.40;40.89;68.24;;
61095;Laerm;20450;49.074;9.158;2023-02-28T14:30:52;55.25;40.62;65.65;;